sensor_id;sensor_type;location;lat;lon;timestamp;temperature;humidity
4376;DHT22;2202;50.866;12.750;2024-01-11T00:02:18;-9.40;90.20
4376;DHT22;2202;50.866;12.750;2024-01-11T00:04:44;-9.40;90.00
4376;DHT22;2202;50.866;12.750;2024-01-11T00:07:11;-9.40;90.00
4376;DHT22;2202;50.866;12.750;2024-01-11T00:09:39;-9.40;89.80
4376;DHT22;2202;50.866;12.750;2024-01-11T00:12:06;-9.40;89.80
4376;DHT22;2202;50.866;12.750;2024-01-11T00:14:33;-9.40;90.00
4376;DHT22;2202;50.866;12.750;2024-01-11T00:17:00;-9.50;89.80
4376;DHT22;2202;50.866;12.750;2024-01-11T00:19:29;-9.50;89.80
4376;DHT22;2202;50.866;12.750;2024-01-11T00:21:56;-9.50;90.00
4376;DHT22;2202;50.866;12.750;2024-01-11T00:24:23;-9.50;90.20
4376;DHT22;2202;50.866;12.750;2024-01-11T00:26:49;-9.50;90.20
4376;DHT22;2202;50.866;12.750;2024-01-11T00:29:16;-9.50;90.20
4376;DHT22;2202;50.866;12.750;2024-01-11T00:31:43;-9.50;90.20
4376;DHT22;2202;50.866;12.750;2024-01-11T00:34:10;-9.50;90.30
4376;DHT22;2202;50.866;12.750;2024-01-11T00:36:38;-9.50;90.30
4376;DHT22;2202;50.866;12.750;2024-01-11T00:39:05;-9.50;90.20
4376;DHT22;2202;50.866;12.750;2024-01-11T00:41:32;-9.50;90.30
4376;DHT22;2202;50.866;12.750;2024-01-11T00:43:59;-9.60;90.30
4376;DHT22;2202;50.866;12.750;2024-01-11T00:46:26;-9.60;90.40
4376;DHT22;2202;50.866;12.750;2024-01-11T00:48:53;-9.50;90.50
4376;DHT22;2202;50.866;12.750;2024-01-11T00:51:20;-9.50;90.50
4376;DHT22;2202;50.866;12.750;2024-01-11T00:53:48;-9.50;90.40
4376;DHT22;2202;50.866;12.750;2024-01-11T00:56:15;-9.50;90.40
4376;DHT22;2202;50.866;12.750;2024-01-11T00:58:42;-9.50;90.60
4376;DHT22;2202;50.866;12.750;2024-01-11T01:01:10;-9.50;90.70
4376;DHT22;2202;50.866;12.750;2024-01-11T01:03:37;-9.50;90.60
4376;DHT22;2202;50.866;12.750;2024-01-11T01:06:04;-9.50;90.50
4376;DHT22;2202;50.866;12.750;2024-01-11T01:08:31;-9.50;90.50
4376;DHT22;2202;50.866;12.750;2024-01-11T01:11:00;-9.50;90.40
4376;DHT22;2202;50.866;12.750;2024-01-11T01:13:26;-9.50;90.40
4376;DHT22;2202;50.866;12.750;2024-01-11T01:15:52;-9.50;90.40
4376;DHT22;2202;50.866;12.750;2024-01-11T01:18:19;-9.60;90.40
4376;DHT22;2202;50.866;12.750;2024-01-11T01:20:46;-9.60;90.30
4376;DHT22;2202;50.866;12.750;2024-01-11T01:23:13;-9.60;90.30
4376;DHT22;2202;50.866;12.750;2024-01-11T01:25:40;-9.60;90.30
4376;DHT22;2202;50.866;12.750;2024-01-11T01:28:08;-9.60;90.30
4376;DHT22;2202;50.866;12.750;2024-01-11T01:30:35;-9.60;90.30
4376;DHT22;2202;50.866;12.750;2024-01-11T01:33:03;-9.60;90.10
4376;DHT22;2202;50.866;12.750;2024-01-11T01:35:30;-9.70;90.10
4376;DHT22;2202;50.866;12.750;2024-01-11T01:37:56;-9.70;90.10
4376;DHT22;2202;50.866;12.750;2024-01-11T01:40:23;-9.70;90.20
4376;DHT22;2202;50.866;12.750;2024-01-11T01:42:50;-9.80;90.20
4376;DHT22;2202;50.866;12.750;2024-01-11T01:45:25;-9.80;90.20
4376;DHT22;2202;50.866;12.750;2024-01-11T01:47:53;-9.80;90.10
4376;DHT22;2202;50.866;12.750;2024-01-11T01:50:20;-9.80;90.00
4376;DHT22;2202;50.866;12.750;2024-01-11T01:52:47;-9.80;90.00
4376;DHT22;2202;50.866;12.750;2024-01-11T01:55:15;-9.80;90.00
4376;DHT22;2202;50.866;12.750;2024-01-11T01:57:43;-9.80;89.80
4376;DHT22;2202;50.866;12.750;2024-01-11T02:00:12;-9.80;89.80
4376;DHT22;2202;50.866;12.750;2024-01-11T02:02:43;-9.80;90.00
4376;DHT22;2202;50.866;12.750;2024-01-11T02:05:11;-9.80;90.00
4376;DHT22;2202;50.866;12.750;2024-01-11T02:07:39;-9.80;90.00
4376;DHT22;2202;50.866;12.750;2024-01-11T02:10:07;-9.80;90.00
4376;DHT22;2202;50.866;12.750;2024-01-11T02:12:35;-9.90;89.80
4376;DHT22;2202;50.866;12.750;2024-01-11T02:15:03;-9.90;89.80
4376;DHT22;2202;50.866;12.750;2024-01-11T02:17:31;-9.90;89.80
4376;DHT22;2202;50.866;12.750;2024-01-11T02:20:00;-9.90;89.80
4376;DHT22;2202;50.866;12.750;2024-01-11T02:22:34;-9.90;89.80
4376;DHT22;2202;50.866;12.750;2024-01-11T02:25:02;-9.90;89.80
4376;DHT22;2202;50.866;12.750;2024-01-11T02:27:30;-9.90;89.80
4376;DHT22;2202;50.866;12.750;2024-01-11T02:29:56;-9.90;90.00
4376;DHT22;2202;50.866;12.750;2024-01-11T02:32:23;-9.90;90.00
4376;DHT22;2202;50.866;12.750;2024-01-11T02:34:50;-9.90;90.00
4376;DHT22;2202;50.866;12.750;2024-01-11T02:37:18;-9.90;90.10
4376;DHT22;2202;50.866;12.750;2024-01-11T02:39:45;-9.90;90.10
4376;DHT22;2202;50.866;12.750;2024-01-11T02:42:13;-9.90;90.10
4376;DHT22;2202;50.866;12.750;2024-01-11T02:44:41;-9.90;90.20
4376;DHT22;2202;50.866;12.750;2024-01-11T02:47:08;-9.90;90.20
4376;DHT22;2202;50.866;12.750;2024-01-11T02:49:35;-9.80;90.30
4376;DHT22;2202;50.866;12.750;2024-01-11T02:52:02;-9.90;90.30
4376;DHT22;2202;50.866;12.750;2024-01-11T02:54:30;-9.90;90.20
4376;DHT22;2202;50.866;12.750;2024-01-11T02:56:57;-9.90;90.20
4376;DHT22;2202;50.866;12.750;2024-01-11T02:59:25;-9.90;90.10
4376;DHT22;2202;50.866;12.750;2024-01-11T03:01:52;-9.90;90.00
4376;DHT22;2202;50.866;12.750;2024-01-11T03:04:19;-9.90;90.10
4376;DHT22;2202;50.866;12.750;2024-01-11T03:06:46;-10.00;90.00
4376;DHT22;2202;50.866;12.750;2024-01-11T03:09:13;-10.00;90.20
4376;DHT22;2202;50.866;12.750;2024-01-11T03:11:40;-10.00;90.20
4376;DHT22;2202;50.866;12.750;2024-01-11T03:14:07;-10.00;90.10
4376;DHT22;2202;50.866;12.750;2024-01-11T03:16:35;-10.00;89.80
4376;DHT22;2202;50.866;12.750;2024-01-11T03:19:03;-10.00;89.80
4376;DHT22;2202;50.866;12.750;2024-01-11T03:21:30;-10.00;89.60
4376;DHT22;2202;50.866;12.750;2024-01-11T03:23:57;-10.00;89.80
4376;DHT22;2202;50.866;12.750;2024-01-11T03:26:25;-10.10;90.10
4376;DHT22;2202;50.866;12.750;2024-01-11T03:28:52;-10.10;89.80
4376;DHT22;2202;50.866;12.750;2024-01-11T03:31:19;-10.10;89.40
4376;DHT22;2202;50.866;12.750;2024-01-11T03:33:47;-10.10;89.40
4376;DHT22;2202;50.866;12.750;2024-01-11T03:36:14;-10.10;89.60
4376;DHT22;2202;50.866;12.750;2024-01-11T03:38:41;-10.10;89.60
4376;DHT22;2202;50.866;12.750;2024-01-11T03:41:08;-10.10;89.60
4376;DHT22;2202;50.866;12.750;2024-01-11T03:43:36;-10.10;89.80
4376;DHT22;2202;50.866;12.750;2024-01-11T03:46:03;-10.10;89.60
4376;DHT22;2202;50.866;12.750;2024-01-11T03:48:30;-10.20;89.20
4376;DHT22;2202;50.866;12.750;2024-01-11T03:50:58;-10.20;89.40
4376;DHT22;2202;50.866;12.750;2024-01-11T03:53:25;-10.20;89.60
4376;DHT22;2202;50.866;12.750;2024-01-11T03:55:52;-10.30;89.80
4376;DHT22;2202;50.866;12.750;2024-01-11T03:58:19;-10.30;90.40
4376;DHT22;2202;50.866;12.750;2024-01-11T04:00:46;-10.30;90.60
4376;DHT22;2202;50.866;12.750;2024-01-11T04:03:13;-10.20;90.70
4376;DHT22;2202;50.866;12.750;2024-01-11T04:05:40;-10.20;90.70
4376;DHT22;2202;50.866;12.750;2024-01-11T04:08:08;-10.10;90.80
4376;DHT22;2202;50.866;12.750;2024-01-11T04:10:35;-10.10;90.70
4376;DHT22;2202;50.866;12.750;2024-01-11T04:13:03;-10.10;90.70
4376;DHT22;2202;50.866;12.750;2024-01-11T04:15:29;-10.00;90.60
4376;DHT22;2202;50.866;12.750;2024-01-11T04:17:56;-10.00;90.60
4376;DHT22;2202;50.866;12.750;2024-01-11T04:20:23;-10.00;90.50
4376;DHT22;2202;50.866;12.750;2024-01-11T04:22:50;-10.10;90.40
4376;DHT22;2202;50.866;12.750;2024-01-11T04:25:19;-10.10;90.50
4376;DHT22;2202;50.866;12.750;2024-01-11T04:27:46;-10.00;90.50
4376;DHT22;2202;50.866;12.750;2024-01-11T04:30:14;-10.00;90.50
4376;DHT22;2202;50.866;12.750;2024-01-11T04:32:41;-10.10;90.50
4376;DHT22;2202;50.866;12.750;2024-01-11T04:35:08;-10.00;90.60
4376;DHT22;2202;50.866;12.750;2024-01-11T04:37:35;-10.00;90.60
4376;DHT22;2202;50.866;12.750;2024-01-11T04:40:03;-10.10;90.70
4376;DHT22;2202;50.866;12.750;2024-01-11T04:42:31;-10.10;91.00
4376;DHT22;2202;50.866;12.750;2024-01-11T04:44:58;-10.10;91.40
4376;DHT22;2202;50.866;12.750;2024-01-11T04:47:25;-10.10;91.70
4376;DHT22;2202;50.866;12.750;2024-01-11T04:49:52;-10.00;91.60
4376;DHT22;2202;50.866;12.750;2024-01-11T04:52:19;-9.90;91.50
4376;DHT22;2202;50.866;12.750;2024-01-11T04:54:46;-9.90;91.40
4376;DHT22;2202;50.866;12.750;2024-01-11T04:57:13;-9.80;91.30
4376;DHT22;2202;50.866;12.750;2024-01-11T04:59:41;-9.90;91.20
4376;DHT22;2202;50.866;12.750;2024-01-11T05:02:08;-9.80;91.00
4376;DHT22;2202;50.866;12.750;2024-01-11T05:04:35;-9.90;90.90
4376;DHT22;2202;50.866;12.750;2024-01-11T05:07:03;-9.80;90.90
4376;DHT22;2202;50.866;12.750;2024-01-11T05:09:29;-9.90;90.70
4376;DHT22;2202;50.866;12.750;2024-01-11T05:11:56;-9.90;90.70
4376;DHT22;2202;50.866;12.750;2024-01-11T05:14:23;-9.90;90.50
4376;DHT22;2202;50.866;12.750;2024-01-11T05:16:52;-9.90;90.50
4376;DHT22;2202;50.866;12.750;2024-01-11T05:19:18;-9.90;90.40
4376;DHT22;2202;50.866;12.750;2024-01-11T05:21:45;-9.90;90.40
4376;DHT22;2202;50.866;12.750;2024-01-11T05:24:12;-10.00;90.50
4376;DHT22;2202;50.866;12.750;2024-01-11T05:26:39;-9.90;90.70
4376;DHT22;2202;50.866;12.750;2024-01-11T05:29:06;-9.90;90.90
4376;DHT22;2202;50.866;12.750;2024-01-11T05:31:33;-9.80;90.90
4376;DHT22;2202;50.866;12.750;2024-01-11T05:34:02;-9.80;90.90
4376;DHT22;2202;50.866;12.750;2024-01-11T05:36:29;-9.80;90.90
4376;DHT22;2202;50.866;12.750;2024-01-11T05:38:56;-9.80;90.90
4376;DHT22;2202;50.866;12.750;2024-01-11T05:41:22;-9.70;90.90
4376;DHT22;2202;50.866;12.750;2024-01-11T05:43:49;-9.70;90.80
4376;DHT22;2202;50.866;12.750;2024-01-11T05:46:16;-9.70;90.70
4376;DHT22;2202;50.866;12.750;2024-01-11T05:48:43;-9.70;90.70
4376;DHT22;2202;50.866;12.750;2024-01-11T05:51:11;-9.80;90.60
4376;DHT22;2202;50.866;12.750;2024-01-11T05:53:38;-9.80;90.80
4376;DHT22;2202;50.866;12.750;2024-01-11T05:56:08;-9.80;91.10
4376;DHT22;2202;50.866;12.750;2024-01-11T05:58:35;-9.70;91.30
4376;DHT22;2202;50.866;12.750;2024-01-11T06:01:03;-9.70;91.30
4376;DHT22;2202;50.866;12.750;2024-01-11T06:03:30;-9.60;91.40
4376;DHT22;2202;50.866;12.750;2024-01-11T06:06:00;-9.60;91.40
4376;DHT22;2202;50.866;12.750;2024-01-11T06:08:29;-9.60;91.20
4376;DHT22;2202;50.866;12.750;2024-01-11T06:10:56;-9.60;91.20
4376;DHT22;2202;50.866;12.750;2024-01-11T06:13:23;-9.50;91.20
4376;DHT22;2202;50.866;12.750;2024-01-11T06:15:50;-9.50;91.00
4376;DHT22;2202;50.866;12.750;2024-01-11T06:18:17;-9.50;91.00
4376;DHT22;2202;50.866;12.750;2024-01-11T06:20:44;-9.50;90.90
4376;DHT22;2202;50.866;12.750;2024-01-11T06:23:11;-9.50;90.90
4376;DHT22;2202;50.866;12.750;2024-01-11T06:25:39;-9.60;90.90
4376;DHT22;2202;50.866;12.750;2024-01-11T06:28:06;-9.50;90.90
4376;DHT22;2202;50.866;12.750;2024-01-11T06:30:35;-9.60;90.80
4376;DHT22;2202;50.866;12.750;2024-01-11T06:33:03;-9.60;90.70
4376;DHT22;2202;50.866;12.750;2024-01-11T06:35:30;-9.60;90.70
4376;DHT22;2202;50.866;12.750;2024-01-11T06:37:56;-9.60;90.90
4376;DHT22;2202;50.866;12.750;2024-01-11T06:40:23;-9.60;90.90
4376;DHT22;2202;50.866;12.750;2024-01-11T06:42:52;-9.60;90.90
4376;DHT22;2202;50.866;12.750;2024-01-11T06:45:19;-9.50;90.90
4376;DHT22;2202;50.866;12.750;2024-01-11T06:47:46;-9.50;90.80
4376;DHT22;2202;50.866;12.750;2024-01-11T06:50:14;-9.50;90.90
4376;DHT22;2202;50.866;12.750;2024-01-11T06:52:41;-9.50;91.00
4376;DHT22;2202;50.866;12.750;2024-01-11T06:55:08;-9.50;91.10
4376;DHT22;2202;50.866;12.750;2024-01-11T06:57:36;-9.40;91.00
4376;DHT22;2202;50.866;12.750;2024-01-11T07:00:06;-9.40;91.10
4376;DHT22;2202;50.866;12.750;2024-01-11T07:02:34;-9.40;91.10
4376;DHT22;2202;50.866;12.750;2024-01-11T07:05:01;-9.40;91.10
4376;DHT22;2202;50.866;12.750;2024-01-11T07:07:28;-9.30;90.90
4376;DHT22;2202;50.866;12.750;2024-01-11T07:09:55;-9.40;90.90
4376;DHT22;2202;50.866;12.750;2024-01-11T07:12:22;-9.40;90.90
4376;DHT22;2202;50.866;12.750;2024-01-11T07:14:49;-9.30;90.90
4376;DHT22;2202;50.866;12.750;2024-01-11T07:17:17;-9.30;90.80
4376;DHT22;2202;50.866;12.750;2024-01-11T07:19:44;-9.30;90.80
4376;DHT22;2202;50.866;12.750;2024-01-11T07:22:11;-9.40;90.80
4376;DHT22;2202;50.866;12.750;2024-01-11T07:24:38;-9.50;91.20
4376;DHT22;2202;50.866;12.750;2024-01-11T07:27:05;-9.50;91.90
4376;DHT22;2202;50.866;12.750;2024-01-11T07:29:33;-9.50;92.50
4376;DHT22;2202;50.866;12.750;2024-01-11T07:32:00;-9.50;93.10
4376;DHT22;2202;50.866;12.750;2024-01-11T07:34:30;-9.40;93.50
4376;DHT22;2202;50.866;12.750;2024-01-11T07:36:58;-9.30;93.90
4376;DHT22;2202;50.866;12.750;2024-01-11T07:39:25;-9.20;94.10
4376;DHT22;2202;50.866;12.750;2024-01-11T07:41:52;-9.10;94.10
4376;DHT22;2202;50.866;12.750;2024-01-11T07:44:19;-9.00;94.30
4376;DHT22;2202;50.866;12.750;2024-01-11T07:46:46;-8.90;94.20
4376;DHT22;2202;50.866;12.750;2024-01-11T07:49:13;-8.90;94.80
4376;DHT22;2202;50.866;12.750;2024-01-11T07:51:42;-8.70;95.00
4376;DHT22;2202;50.866;12.750;2024-01-11T07:54:09;-8.60;94.80
4376;DHT22;2202;50.866;12.750;2024-01-11T07:56:36;-8.50;94.90
4376;DHT22;2202;50.866;12.750;2024-01-11T07:59:02;-8.40;95.00
4376;DHT22;2202;50.866;12.750;2024-01-11T08:01:30;-8.20;94.80
4376;DHT22;2202;50.866;12.750;2024-01-11T08:03:56;-8.20;94.60
4376;DHT22;2202;50.866;12.750;2024-01-11T08:06:23;-8.10;94.40
4376;DHT22;2202;50.866;12.750;2024-01-11T08:08:51;-8.10;94.40
4376;DHT22;2202;50.866;12.750;2024-01-11T08:11:18;-8.00;94.30
4376;DHT22;2202;50.866;12.750;2024-01-11T08:13:45;-8.00;94.30
4376;DHT22;2202;50.866;12.750;2024-01-11T08:16:15;-7.90;94.30
4376;DHT22;2202;50.866;12.750;2024-01-11T08:18:45;-7.90;94.10
4376;DHT22;2202;50.866;12.750;2024-01-11T08:21:14;-7.80;94.00
4376;DHT22;2202;50.866;12.750;2024-01-11T08:23:41;-7.80;93.80
4376;DHT22;2202;50.866;12.750;2024-01-11T08:26:12;-7.90;93.60
4376;DHT22;2202;50.866;12.750;2024-01-11T08:28:39;-7.90;93.90
4376;DHT22;2202;50.866;12.750;2024-01-11T08:31:06;-7.80;93.90
4376;DHT22;2202;50.866;12.750;2024-01-11T08:33:34;-7.70;93.80
4376;DHT22;2202;50.866;12.750;2024-01-11T08:36:02;-7.70;93.70
4376;DHT22;2202;50.866;12.750;2024-01-11T08:38:29;-7.70;93.40
4376;DHT22;2202;50.866;12.750;2024-01-11T08:40:57;-7.80;93.60
4376;DHT22;2202;50.866;12.750;2024-01-11T08:43:27;-7.80;93.70
4376;DHT22;2202;50.866;12.750;2024-01-11T08:45:54;-7.70;94.00
4376;DHT22;2202;50.866;12.750;2024-01-11T08:48:21;-7.60;93.90
4376;DHT22;2202;50.866;12.750;2024-01-11T08:50:48;-7.50;93.60
4376;DHT22;2202;50.866;12.750;2024-01-11T08:53:15;-7.40;93.40
4376;DHT22;2202;50.866;12.750;2024-01-11T08:55:43;-7.40;93.40
4376;DHT22;2202;50.866;12.750;2024-01-11T08:58:10;-7.30;93.30
4376;DHT22;2202;50.866;12.750;2024-01-11T09:00:39;-7.40;93.30
4376;DHT22;2202;50.866;12.750;2024-01-11T09:03:06;-7.30;93.50
4376;DHT22;2202;50.866;12.750;2024-01-11T09:05:33;-7.30;93.50
4376;DHT22;2202;50.866;12.750;2024-01-11T09:08:00;-7.20;93.70
4376;DHT22;2202;50.866;12.750;2024-01-11T09:10:26;-7.10;93.90
4376;DHT22;2202;50.866;12.750;2024-01-11T09:12:54;-7.00;93.70
4376;DHT22;2202;50.866;12.750;2024-01-11T09:15:21;-6.90;93.50
4376;DHT22;2202;50.866;12.750;2024-01-11T09:17:49;-6.90;93.60
4376;DHT22;2202;50.866;12.750;2024-01-11T09:20:16;-6.80;93.80
4376;DHT22;2202;50.866;12.750;2024-01-11T09:22:44;-6.70;93.60
4376;DHT22;2202;50.866;12.750;2024-01-11T09:25:12;-6.50;93.40
4376;DHT22;2202;50.866;12.750;2024-01-11T09:27:39;-6.40;93.40
4376;DHT22;2202;50.866;12.750;2024-01-11T09:30:07;-6.30;93.10
4376;DHT22;2202;50.866;12.750;2024-01-11T09:32:34;-6.20;92.80
4376;DHT22;2202;50.866;12.750;2024-01-11T09:35:03;-6.10;92.50
4376;DHT22;2202;50.866;12.750;2024-01-11T09:37:30;-6.20;92.20
4376;DHT22;2202;50.866;12.750;2024-01-11T09:39:57;-6.20;92.40
4376;DHT22;2202;50.866;12.750;2024-01-11T09:42:26;-6.10;92.50
4376;DHT22;2202;50.866;12.750;2024-01-11T09:44:54;-6.00;92.50
4376;DHT22;2202;50.866;12.750;2024-01-11T09:47:21;-6.00;92.00
4376;DHT22;2202;50.866;12.750;2024-01-11T09:49:49;-5.90;92.20
4376;DHT22;2202;50.866;12.750;2024-01-11T09:52:20;-5.90;92.20
4376;DHT22;2202;50.866;12.750;2024-01-11T09:54:47;-5.80;92.20
4376;DHT22;2202;50.866;12.750;2024-01-11T09:57:18;-5.90;92.10
4376;DHT22;2202;50.866;12.750;2024-01-11T09:59:49;-5.90;92.20
4376;DHT22;2202;50.866;12.750;2024-01-11T10:02:17;-5.90;92.30
4376;DHT22;2202;50.866;12.750;2024-01-11T10:04:44;-5.80;92.50
4376;DHT22;2202;50.866;12.750;2024-01-11T10:07:13;-5.60;92.60
4376;DHT22;2202;50.866;12.750;2024-01-11T10:09:42;-5.60;92.40
4376;DHT22;2202;50.866;12.750;2024-01-11T10:12:10;-5.50;92.00
4376;DHT22;2202;50.866;12.750;2024-01-11T10:14:37;-5.40;92.50
4376;DHT22;2202;50.866;12.750;2024-01-11T10:17:04;-5.30;92.10
4376;DHT22;2202;50.866;12.750;2024-01-11T10:19:31;-5.20;91.70
4376;DHT22;2202;50.866;12.750;2024-01-11T10:21:58;-5.30;91.10
4376;DHT22;2202;50.866;12.750;2024-01-11T10:24:25;-5.20;91.40
4376;DHT22;2202;50.866;12.750;2024-01-11T10:26:57;-5.30;91.40
4376;DHT22;2202;50.866;12.750;2024-01-11T10:29:30;-5.20;91.40
4376;DHT22;2202;50.866;12.750;2024-01-11T10:31:57;-5.30;91.40
4376;DHT22;2202;50.866;12.750;2024-01-11T10:34:24;-5.20;91.50
4376;DHT22;2202;50.866;12.750;2024-01-11T10:36:51;-5.20;91.10
4376;DHT22;2202;50.866;12.750;2024-01-11T10:39:19;-5.10;91.30
4376;DHT22;2202;50.866;12.750;2024-01-11T10:41:52;-5.10;91.20
4376;DHT22;2202;50.866;12.750;2024-01-11T10:44:22;-4.90;91.60
4376;DHT22;2202;50.866;12.750;2024-01-11T10:46:49;-4.80;91.50
4376;DHT22;2202;50.866;12.750;2024-01-11T10:49:18;-4.60;91.80
4376;DHT22;2202;50.866;12.750;2024-01-11T10:51:49;-4.40;90.90
4376;DHT22;2202;50.866;12.750;2024-01-11T10:54:17;-4.20;90.70
4376;DHT22;2202;50.866;12.750;2024-01-11T10:56:46;-4.10;90.40
4376;DHT22;2202;50.866;12.750;2024-01-11T10:59:14;-4.20;89.40
4376;DHT22;2202;50.866;12.750;2024-01-11T11:01:43;-4.10;90.00
4376;DHT22;2202;50.866;12.750;2024-01-11T11:04:10;-4.10;90.10
4376;DHT22;2202;50.866;12.750;2024-01-11T11:06:38;-4.10;89.60
4376;DHT22;2202;50.866;12.750;2024-01-11T11:09:07;-4.10;89.00
4376;DHT22;2202;50.866;12.750;2024-01-11T11:11:34;-4.00;89.00
4376;DHT22;2202;50.866;12.750;2024-01-11T11:14:01;-3.90;88.80
4376;DHT22;2202;50.866;12.750;2024-01-11T11:16:30;-3.90;88.20
4376;DHT22;2202;50.866;12.750;2024-01-11T11:18:58;-3.80;88.80
4376;DHT22;2202;50.866;12.750;2024-01-11T11:21:25;-3.70;89.20
4376;DHT22;2202;50.866;12.750;2024-01-11T11:23:55;-3.60;87.60
4376;DHT22;2202;50.866;12.750;2024-01-11T11:26:26;-3.60;86.80
4376;DHT22;2202;50.866;12.750;2024-01-11T11:28:53;-3.50;87.00
4376;DHT22;2202;50.866;12.750;2024-01-11T11:31:34;-3.40;86.80
4376;DHT22;2202;50.866;12.750;2024-01-11T11:34:04;-3.30;86.00
4376;DHT22;2202;50.866;12.750;2024-01-11T11:36:33;-3.30;85.80
4376;DHT22;2202;50.866;12.750;2024-01-11T11:39:01;-3.40;86.00
4376;DHT22;2202;50.866;12.750;2024-01-11T11:41:30;-3.40;85.80
4376;DHT22;2202;50.866;12.750;2024-01-11T11:44:01;-3.30;86.80
4376;DHT22;2202;50.866;12.750;2024-01-11T11:46:28;-3.00;87.20
4376;DHT22;2202;50.866;12.750;2024-01-11T11:48:57;-2.90;85.20
4376;DHT22;2202;50.866;12.750;2024-01-11T11:51:25;-2.90;83.80
4376;DHT22;2202;50.866;12.750;2024-01-11T11:53:53;-2.80;85.20
4376;DHT22;2202;50.866;12.750;2024-01-11T11:56:21;-2.70;85.00
4376;DHT22;2202;50.866;12.750;2024-01-11T11:58:49;-2.50;84.80
4376;DHT22;2202;50.866;12.750;2024-01-11T12:01:17;-2.40;83.60
4376;DHT22;2202;50.866;12.750;2024-01-11T12:03:45;-2.50;83.80
4376;DHT22;2202;50.866;12.750;2024-01-11T12:06:15;-2.30;83.40
4376;DHT22;2202;50.866;12.750;2024-01-11T12:08:44;-2.30;82.40
4376;DHT22;2202;50.866;12.750;2024-01-11T12:11:14;-2.20;82.40
4376;DHT22;2202;50.866;12.750;2024-01-11T12:13:41;-2.20;81.40
4376;DHT22;2202;50.866;12.750;2024-01-11T12:16:10;-2.00;81.80
4376;DHT22;2202;50.866;12.750;2024-01-11T12:18:37;-1.90;81.00
4376;DHT22;2202;50.866;12.750;2024-01-11T12:21:04;-1.80;80.00
4376;DHT22;2202;50.866;12.750;2024-01-11T12:23:31;-1.80;79.60
4376;DHT22;2202;50.866;12.750;2024-01-11T12:26:01;-1.70;79.60
4376;DHT22;2202;50.866;12.750;2024-01-11T12:28:29;-1.60;79.00
4376;DHT22;2202;50.866;12.750;2024-01-11T12:30:57;-1.50;78.40
4376;DHT22;2202;50.866;12.750;2024-01-11T12:33:25;-1.30;78.80
4376;DHT22;2202;50.866;12.750;2024-01-11T12:35:52;-1.30;75.80
4376;DHT22;2202;50.866;12.750;2024-01-11T12:38:19;-1.30;76.40
4376;DHT22;2202;50.866;12.750;2024-01-11T12:40:47;-1.40;72.80
4376;DHT22;2202;50.866;12.750;2024-01-11T12:43:16;-1.50;73.00
4376;DHT22;2202;50.866;12.750;2024-01-11T12:45:43;-1.60;73.40
4376;DHT22;2202;50.866;12.750;2024-01-11T12:48:10;-1.50;73.60
4376;DHT22;2202;50.866;12.750;2024-01-11T12:50:40;-1.60;73.00
4376;DHT22;2202;50.866;12.750;2024-01-11T12:53:07;-1.70;71.40
4376;DHT22;2202;50.866;12.750;2024-01-11T12:55:34;-1.80;72.00
4376;DHT22;2202;50.866;12.750;2024-01-11T12:58:05;-1.80;72.60
4376;DHT22;2202;50.866;12.750;2024-01-11T13:00:34;-1.80;73.80
4376;DHT22;2202;50.866;12.750;2024-01-11T13:03:01;-1.80;73.60
4376;DHT22;2202;50.866;12.750;2024-01-11T13:05:28;-1.80;74.40
4376;DHT22;2202;50.866;12.750;2024-01-11T13:07:55;-1.80;74.80
4376;DHT22;2202;50.866;12.750;2024-01-11T13:10:22;-1.90;75.40
4376;DHT22;2202;50.866;12.750;2024-01-11T13:12:53;-1.80;76.00
4376;DHT22;2202;50.866;12.750;2024-01-11T13:15:21;-1.80;75.20
4376;DHT22;2202;50.866;12.750;2024-01-11T13:17:50;-1.90;73.60
4376;DHT22;2202;50.866;12.750;2024-01-11T13:20:17;-1.90;75.80
4376;DHT22;2202;50.866;12.750;2024-01-11T13:22:44;-1.90;76.20
4376;DHT22;2202;50.866;12.750;2024-01-11T13:25:11;-1.80;76.40
4376;DHT22;2202;50.866;12.750;2024-01-11T13:27:38;-1.70;75.60
4376;DHT22;2202;50.866;12.750;2024-01-11T13:30:06;-1.70;70.80
4376;DHT22;2202;50.866;12.750;2024-01-11T13:32:34;-1.80;68.60
4376;DHT22;2202;50.866;12.750;2024-01-11T13:35:02;-2.00;70.40
4376;DHT22;2202;50.866;12.750;2024-01-11T13:37:29;-1.90;72.20
4376;DHT22;2202;50.866;12.750;2024-01-11T13:39:56;-2.00;71.20
4376;DHT22;2202;50.866;12.750;2024-01-11T13:42:23;-2.00;71.80
4376;DHT22;2202;50.866;12.750;2024-01-11T13:44:50;-2.00;71.20
4376;DHT22;2202;50.866;12.750;2024-01-11T13:47:17;-2.00;70.60
4376;DHT22;2202;50.866;12.750;2024-01-11T13:49:44;-2.00;70.40
4376;DHT22;2202;50.866;12.750;2024-01-11T13:52:13;-1.90;70.60
4376;DHT22;2202;50.866;12.750;2024-01-11T13:54:39;-1.80;70.20
4376;DHT22;2202;50.866;12.750;2024-01-11T13:57:06;-1.90;67.80
4376;DHT22;2202;50.866;12.750;2024-01-11T13:59:33;-1.90;69.00
4376;DHT22;2202;50.866;12.750;2024-01-11T14:02:01;-1.90;69.40
4376;DHT22;2202;50.866;12.750;2024-01-11T14:04:29;-1.90;69.20
4376;DHT22;2202;50.866;12.750;2024-01-11T14:06:56;-1.90;70.40
4376;DHT22;2202;50.866;12.750;2024-01-11T14:09:24;-1.90;70.40
4376;DHT22;2202;50.866;12.750;2024-01-11T14:11:51;-1.90;70.40
4376;DHT22;2202;50.866;12.750;2024-01-11T14:14:18;-1.90;70.40
4376;DHT22;2202;50.866;12.750;2024-01-11T14:16:46;-1.90;70.80
4376;DHT22;2202;50.866;12.750;2024-01-11T14:19:13;-2.00;71.60
4376;DHT22;2202;50.866;12.750;2024-01-11T14:21:40;-1.90;72.40
4376;DHT22;2202;50.866;12.750;2024-01-11T14:24:07;-2.00;71.40
4376;DHT22;2202;50.866;12.750;2024-01-11T14:26:35;-2.10;72.20
4376;DHT22;2202;50.866;12.750;2024-01-11T14:29:03;-2.10;71.80
4376;DHT22;2202;50.866;12.750;2024-01-11T14:31:30;-2.10;72.20
4376;DHT22;2202;50.866;12.750;2024-01-11T14:33:57;-2.00;72.40
4376;DHT22;2202;50.866;12.750;2024-01-11T14:36:24;-1.90;72.60
4376;DHT22;2202;50.866;12.750;2024-01-11T14:38:51;-1.90;71.80
4376;DHT22;2202;50.866;12.750;2024-01-11T14:41:18;-1.80;72.00
4376;DHT22;2202;50.866;12.750;2024-01-11T14:43:46;-2.00;67.80
4376;DHT22;2202;50.866;12.750;2024-01-11T14:46:13;-2.10;68.00
4376;DHT22;2202;50.866;12.750;2024-01-11T14:48:40;-2.10;68.80
4376;DHT22;2202;50.866;12.750;2024-01-11T14:51:07;-2.20;68.80
4376;DHT22;2202;50.866;12.750;2024-01-11T14:53:34;-2.20;69.00
4376;DHT22;2202;50.866;12.750;2024-01-11T14:56:02;-2.20;69.40
4376;DHT22;2202;50.866;12.750;2024-01-11T14:58:28;-2.20;69.00
4376;DHT22;2202;50.866;12.750;2024-01-11T15:00:57;-2.20;68.00
4376;DHT22;2202;50.866;12.750;2024-01-11T15:03:24;-2.20;67.80
4376;DHT22;2202;50.866;12.750;2024-01-11T15:05:52;-2.20;68.40
4376;DHT22;2202;50.866;12.750;2024-01-11T15:08:19;-2.40;68.00
4376;DHT22;2202;50.866;12.750;2024-01-11T15:10:46;-2.50;66.80
4376;DHT22;2202;50.866;12.750;2024-01-11T15:13:13;-2.50;67.80
4376;DHT22;2202;50.866;12.750;2024-01-11T15:15:40;-2.50;67.00
4376;DHT22;2202;50.866;12.750;2024-01-11T15:18:09;-2.50;67.00
4376;DHT22;2202;50.866;12.750;2024-01-11T15:20:36;-2.60;66.80
4376;DHT22;2202;50.866;12.750;2024-01-11T15:23:03;-2.70;67.40
4376;DHT22;2202;50.866;12.750;2024-01-11T15:25:30;-2.70;68.20
4376;DHT22;2202;50.866;12.750;2024-01-11T15:27:57;-2.70;68.60
4376;DHT22;2202;50.866;12.750;2024-01-11T15:30:24;-2.70;68.40
4376;DHT22;2202;50.866;12.750;2024-01-11T15:32:51;-2.70;68.80
4376;DHT22;2202;50.866;12.750;2024-01-11T15:35:20;-2.80;68.40
4376;DHT22;2202;50.866;12.750;2024-01-11T15:37:47;-2.90;69.00
4376;DHT22;2202;50.866;12.750;2024-01-11T15:40:15;-3.00;69.60
4376;DHT22;2202;50.866;12.750;2024-01-11T15:42:42;-2.90;69.80
4376;DHT22;2202;50.866;12.750;2024-01-11T15:45:09;-3.00;71.00
4376;DHT22;2202;50.866;12.750;2024-01-11T15:47:37;-3.00;71.60